Alger, Michigan
Current Conditions -  °F | °C
As of 5:53 AM on Sunday 23 Nov 2014 (Local Time) from KHTL Reporting Station
Moderate Fog Moderate Fog  
Wind Chill: 37°   Ceiling: 200
Heat Index: 41°   Visibility: 0.5mi
Dew Point: 40°   Wind: 6mph
Humidity: 96%   Direction: 170°S
Pressure: 29.8"   Gusts: NA
Location:  44.13°N, 84.12°W
Report Text: KHTL 231053Z AUTO 17005KT 1/2SM FG VV002 05/04 A2980 RMK AO2 SLP100 T00500044
Loading
Personal Weather Stations






























Interactive Weather Map New forecast layout! Learn more

10-Day Weather Forecast

Advertisements
Track Severe Weather on mobile